หน้าหลัก
METAR-TAF:

METAR-TAF

ท่าอากาศยาน :

Kangiqsualujjuaq, ควิเบก, แคนาดา

ละติจูด: 58-43N, ลองจิจูด: 065-59W, ความสูง: 60 ม.

การสังเกตสภาพอากาศปัจจุบัน

รายงานได้ทำขึ้นเมื่อ 10 ชั่วโมงและ 15 นาทีที่แล้ว ณ เวลา 21:00 UTC
ลม 10 นอตจากตะวันออก/ตะวันออกเฉียงเหนือ
อุณหภูมิ -1°C
ความชื้น 69%
ความกดอากาศ 1009 hPa
ทัศนวิสัย: 24.1 กม.
มีเมฆเป็นส่วนมากเว้นเป็นระยะที่ความสูง 13000 ฟุต
มีเมฆมาก มืดครึ้มที่ความสูง 20000 ฟุต

METAR: CYLU 192100Z 06010KT 15SM BKN130 OVC200 M01/M06 A2981 RMK AC5CS3 LAST STFD OBS/NEXT 201200 UTC SLP102

เวลา: 03:15 (07:15 UTC)


TAF: หายไป

สังเกตการณ์สภาพอากาศและพยากรณ์อากาศของสนามบินมากกว่า 4000 แห่ง (รายงาน METAR และ TAF).

สถานีที่ดูได้จะแสดงไว้ด้วยจุดสีเหลืองและสีแดงบนแผนที่.

เลื่อนเมาส์ไปเหนือจุดเพื่อดูชื่อสถานี.

แล้วคลิกเพื่อดูสังเกตการณ์และการพยากรณ์สภาพอากาศ.

ในการเปลี่ยนแผนที่: คลิกที่ปุ่มสีเขียวที่มีกากบาทสีดำเพื่อซูมเข้า; ที่ปุ่มสีเขียวที่มีขีดเพื่อซูมออก; หรือที่ลูกศรสีเขียวเพื่อไปยังแผนที่ที่อยู่ติดกัน.


METAR-TAF: